Data Viewer
| City | State | Eastern Time | Source | Temp | DewPt | RH | BP | 5 Min Precip | Wind Speed | Wind Dir | 5 Min Wind Max | 5 Min Wind Max Dir |
|---|---|---|---|---|---|---|---|---|---|---|---|---|
| Philadelphia NE AP | PA | 2026-05-05 08:54 | ASOS | 69 | 49 | 49 | 29.89 | 10 | SW | |||
| Philadelphia NE AP | PA | 2026-05-05 20:54 | ASOS | 74 | 51 | 45 | 29.84 | 7 | S | |||
| Philadelphia NE AP | PA | 2026-05-06 05:54 | ASOS | 65 | 56 | 73 | 29.83 | 8 | SSW | |||
| Philadelphia NE AP | PA | 2026-05-06 04:54 | ASOS | 66 | 56 | 70 | 29.83 | 9 | SSW | |||
| Philadelphia NE AP | PA | 2026-05-06 03:54 | ASOS | 67 | 56 | 68 | 29.84 | 9 | SSW | |||
| Philadelphia NE AP | PA | 2026-05-06 02:54 | ASOS | 68 | 56 | 65 | 29.85 | 6 | ||||
| Philadelphia NE AP | PA | 2026-05-06 01:54 | ASOS | 69 | 56 | 63 | 29.85 | 9 | SSW | |||
| Philadelphia NE AP | PA | 2026-05-06 00:54 | ASOS | 69 | 55 | 61 | 29.86 | 13 | SSW | |||
| Philadelphia NE AP | PA | 2026-05-05 23:54 | ASOS | 70 | 54 | 57 | 29.86 | 12 | SSW | |||
| Philadelphia NE AP | PA | 2026-05-05 22:54 | ASOS | 71 | 53 | 53 | 29.86 | 13 | SSW | |||
| Philadelphia NE AP | PA | 2026-05-05 21:54 | ASOS | 72 | 52 | 49 | 29.86 | 9 | SSW | |||
| Philadelphia NE AP | PA | 2026-05-05 19:54 | ASOS | 79 | 47 | 32 | 29.82 | 12 | SSW | |||
| Philadelphia NE AP | PA | 2026-05-05 09:54 | ASOS | 72 | 49 | 44 | 29.89 | 10 | SW | |||
| Philadelphia NE AP | PA | 2026-05-05 18:54 | ASOS | 80 | 47 | 31 | 29.81 | 17 | SSW | |||
| Philadelphia NE AP | PA | 2026-05-05 17:54 | ASOS | 82 | 44 | 26 | 29.80 | 21 | SW | |||
| Philadelphia NE AP | PA | 2026-05-05 16:54 | ASOS | 83 | 41 | 23 | 29.79 | 22 | SW | |||
| Philadelphia NE AP | PA | 2026-05-05 15:54 | ASOS | 84 | 45 | 26 | 29.79 | 24 | SW | |||
| Philadelphia NE AP | PA | 2026-05-05 14:54 | ASOS | 83 | 49 | 31 | 29.81 | 14 | SW | |||
| Philadelphia NE AP | PA | 2026-05-05 13:54 | ASOS | 81 | 49 | 33 | 29.84 | 16 | SW | |||
| Philadelphia NE AP | PA | 2026-05-05 12:54 | ASOS | 80 | 51 | 37 | 29.85 | 14 | SW | |||
| Philadelphia NE AP | PA | 2026-05-05 11:54 | ASOS | 77 | 50 | 39 | 29.87 | 10 | S | |||
| Philadelphia NE AP | PA | 2026-05-05 10:54 | ASOS | 74 | 49 | 41 | 29.87 | 8 | S | |||
| Philadelphia NE AP | PA | 2026-05-06 06:54 | ASOS | 66 | 55 | 68 | 29.83 | 12 | SSW |
data collection created in 0.0067601203918457 (queried in 0.003259) rendered in: 3.1948089599609E-5

